Time;durP1;ratioP1;P1;durP2;ratioP2;P2;SDS_P1;SDS_P2;PMS_P1;PMS_P2;Temp;Humidity;BMP_temperature;BMP_pressure;BME280_temperature;BME280_humidity;BME280_pressure;Samples;Min_cycle;Max_cycle;Signal;HPM_P1;HPM_P2
2020/12/20 00:00:19;;;;;;;20.80;16.60;;;7.10;99.90;;;;;;4924280;28;20475;-85
2020/12/20 00:03:14;;;;;;;22.23;16.83;;;7.10;99.90;;;;;;4945079;28;20465;-87
2020/12/20 00:05:39;;;;;;;21.10;15.63;;;7.20;99.90;;;;;;4928461;28;20455;-85
2020/12/20 00:08:11;;;;;;;22.93;17.90;;;7.30;99.90;;;;;;4951163;28;20849;-88
2020/12/20 00:10:37;;;;;;;20.27;15.70;;;7.30;99.90;;;;;;4953200;28;20249;-86
2020/12/20 00:16:44;;;;;;;21.90;16.70;;;7.30;99.90;;;;;;4944657;28;20418;-88
2020/12/20 00:19:21;;;;;;;22.20;17.73;;;7.30;99.90;;;;;;4914034;28;20560;-83
2020/12/20 00:22:07;;;;;;;22.97;17.33;;;7.40;99.90;;;;;;4945808;28;20438;-85
2020/12/20 00:24:34;;;;;;;23.13;16.87;;;7.30;99.90;;;;;;4952944;28;20902;-83
2020/12/20 00:27:04;;;;;;;28.53;18.57;;;7.20;99.90;;;;;;4944148;28;20533;-88
2020/12/20 00:29:33;;;;;;;24.50;16.47;;;7.30;99.90;;;;;;4955364;28;21052;-84
2020/12/20 00:32:12;;;;;;;21.63;16.10;;;7.30;99.90;;;;;;4962414;28;20427;-91
2020/12/20 00:35:06;;;;;;;24.17;17.57;;;7.20;99.90;;;;;;4953830;28;20439;-94
2020/12/20 00:38:13;;;;;;;20.17;16.30;;;7.20;99.90;;;;;;4949055;28;20476;-93
2020/12/20 00:41:17;;;;;;;23.17;17.10;;;7.10;99.90;;;;;;4937301;28;20479;-94
2020/12/20 00:44:05;;;;;;;20.27;15.17;;;7.10;99.90;;;;;;4914447;28;20578;-91
2020/12/20 00:47:02;;;;;;;23.30;16.50;;;7.00;99.90;;;;;;4928993;28;20439;-86
2020/12/20 00:54:55;;;;;;;25.40;16.70;;;7.00;99.90;;;;;;4076204;26;20561;-88
2020/12/20 02:41:02;;;;;;;27.20;13.43;;;7.00;99.90;;;;;;5725678;23;1198544;-86
2020/12/20 02:43:39;;;;;;;;;;;;;;;;;;;;;
2020/12/20 02:46:08;;;;;;;19.70;14.17;;;6.90;99.90;;;;;;4910343;29;20924;-88
2020/12/20 02:49:08;;;;;;;;;;;;;;;;;;;;;
2020/12/20 02:51:43;;;;;;;18.13;14.43;;;7.00;99.90;;;;;;4896573;29;20445;-89
2020/12/20 02:54:18;;;;;;;17.77;13.10;;;7.10;99.90;;;;;;4896723;29;20453;-88
2020/12/20 02:56:45;;;;;;;22.30;14.57;;;7.10;99.90;;;;;;4902073;29;21036;-91
2020/12/20 03:02:16;;;;;;;24.60;12.80;;;7.10;99.90;;;;;;4908168;29;20449;-88
2020/12/20 03:04:54;;;;;;;17.90;13.03;;;7.10;99.90;;;;;;4902429;29;20435;-89
2020/12/20 03:07:37;;;;;;;;;;;;;;;;;;;;;
2020/12/20 03:10:54;;;;;;;;;;;;;;;;;;;;;
2020/12/20 03:13:55;;;;;;;15.90;12.03;;;7.10;99.90;;;;;;4896520;29;20446;-88
2020/12/20 03:20:19;;;;;;;14.73;11.37;;;7.10;99.90;;;;;;4897725;29;20484;-89
2020/12/20 03:26:54;;;;;;;14.33;12.73;;;7.00;99.90;;;;;;4894761;29;20440;-88
2020/12/20 03:40:47;;;;;;;18.43;11.87;;;7.10;99.90;;;;;;4802784;29;20524;-89
2020/12/20 03:44:11;;;;;;;15.47;12.47;;;7.10;99.90;;;;;;4758422;30;20455;-87
2020/12/20 03:47:39;;;;;;;17.17;12.90;;;7.10;99.90;;;;;;4759609;29;20483;-89
2020/12/20 03:54:33;;;;;;;15.23;11.53;;;7.20;99.90;;;;;;4815310;29;20439;-88
2020/12/20 04:01:19;;;;;;;;;;;;;;;;;;;;;
2020/12/20 06:14:52;;;;;;;18.83;15.33;;;7.50;99.90;;;;;;4350853;23;20901;-89
2020/12/20 06:17:27;;;;;;;19.63;14.83;;;7.40;99.90;;;;;;4948655;28;20514;-84
2020/12/20 06:20:30;;;;;;;18.93;14.43;;;7.40;99.90;;;;;;4936854;29;20538;-85
2020/12/20 06:22:56;;;;;;;18.17;14.70;;;7.50;99.90;;;;;;4896404;29;21043;-87
2020/12/20 06:25:36;;;;;;;17.77;14.03;;;7.50;99.90;;;;;;4879560;29;20449;-87
2020/12/20 06:28:24;;;;;;;19.20;14.10;;;7.50;99.90;;;;;;4896757;29;20449;-87
2020/12/20 06:31:01;;;;;;;16.10;12.87;;;7.70;99.90;;;;;;4877458;29;20465;-85
2020/12/20 06:33:48;;;;;;;14.50;12.13;;;7.60;99.90;;;;;;4902202;29;20431;-89
2020/12/20 06:36:26;;;;;;;16.50;12.80;;;7.40;99.90;;;;;;4913321;29;20464;-87
2020/12/20 06:39:02;;;;;;;17.10;12.50;;;7.30;99.90;;;;;;4917371;29;20474;-88
2020/12/20 06:41:43;;;;;;;17.77;12.77;;;7.20;99.90;;;;;;4902131;29;20455;-88
2020/12/20 06:44:18;;;;;;;15.33;12.47;;;7.10;99.90;;;;;;4912347;29;21056;-89
2020/12/20 06:46:50;;;;;;;13.73;11.10;;;7.20;99.90;;;;;;4914028;29;20466;-88
2020/12/20 06:49:58;;;;;;;14.50;11.97;;;7.20;99.90;;;;;;4919825;29;20812;-87
2020/12/20 06:52:29;;;;;;;16.83;12.17;;;7.30;99.90;;;;;;4894853;29;20547;-88
2020/12/20 06:55:07;;;;;;;19.07;12.70;;;7.40;99.90;;;;;;4914021;29;20846;-88
2020/12/20 06:58:08;;;;;;;15.73;11.87;;;7.40;99.90;;;;;;4932829;29;20480;-88
2020/12/20 07:00:55;;;;;;;14.83;10.50;;;7.50;99.90;;;;;;4943793;23;20987;-88
2020/12/20 07:03:53;;;;;;;19.77;12.80;;;7.40;99.90;;;;;;4940366;28;20464;-90
2020/12/20 07:06:39;;;;;;;16.00;12.57;;;7.40;99.90;;;;;;4913882;29;20542;-88
2020/12/20 07:09:12;;;;;;;14.43;11.60;;;7.50;99.90;;;;;;4924928;29;20495;-89
2020/12/20 07:12:28;;;;;;;17.43;12.20;;;7.50;99.90;;;;;;4910109;29;20447;-87
2020/12/20 07:34:35;;;;;;;17.57;13.17;;;7.70;99.90;;;;;;5505197;23;20474;-88
2020/12/20 07:44:38;;;;;;;17.23;11.70;;;7.60;99.90;;;;;;4852194;29;20474;-88
2020/12/20 07:51:14;;;;;;;;;;;;;;;;;;;;;
2020/12/20 09:21:58;;;;;;;13.17;10.43;;;8.70;99.90;;;;;;980732;23;20783;-87
2020/12/20 09:25:05;;;;;;;15.60;11.37;;;8.80;99.90;;;;;;4939326;28;20441;-89
2020/12/20 09:31:51;;;;;;;;;;;;;;;;;;;;;
2020/12/20 09:37:59;;;;;;;12.00;9.50;;;9.20;99.90;;;;;;4960956;28;20572;-87
2020/12/20 10:32:36;;;;;;;14.00;10.00;;;10.20;99.90;;;;;;5046957;23;20492;-87
2020/12/20 10:35:15;;;;;;;;;;;;;;;;;;;;;
2020/12/20 10:52:52;;;;;;;;;;;;;;;;;;;;;
2020/12/20 10:56:19;;;;;;;;;;;;;;;;;;;;;
2020/12/20 10:59:05;;;;;;;13.80;10.40;;;10.80;99.90;;;;;;4983186;28;20488;-86
2020/12/20 11:01:51;;;;;;;11.40;9.93;;;11.00;99.90;;;;;;4992556;28;21238;-86
2020/12/20 11:04:40;;;;;;;11.00;9.90;;;11.10;99.90;;;;;;4983965;28;20421;-88
2020/12/20 11:07:16;;;;;;;15.47;11.30;;;11.20;99.90;;;;;;4964327;28;20440;-86
2020/12/20 11:10:18;;;;;;;13.40;11.20;;;11.30;99.90;;;;;;5044418;23;20534;-88
2020/12/20 11:12:59;;;;;;;11.63;9.20;;;11.50;99.90;;;;;;4923990;28;20429;-89
2020/12/20 11:16:08;;;;;;;13.30;9.60;;;11.70;99.90;;;;;;4941575;28;20491;-87
2020/12/20 11:19:24;;;;;;;11.70;9.07;;;11.80;99.90;;;;;;4925675;28;20513;-88
2020/12/20 11:23:04;;;;;;;11.20;9.40;;;11.90;99.90;;;;;;4937746;28;20459;-91
2020/12/20 11:26:00;;;;;;;12.30;9.50;;;11.80;99.90;;;;;;4845180;29;20424;-88
2020/12/20 11:28:57;;;;;;;15.97;9.73;;;11.60;99.90;;;;;;4899544;28;20442;-88
2020/12/20 11:31:57;;;;;;;12.93;9.80;;;11.40;99.90;;;;;;4950157;28;20450;-86
2020/12/20 11:34:40;;;;;;;10.90;9.07;;;11.20;99.90;;;;;;4912310;29;20431;-89
2020/12/20 11:44:45;;;;;;;13.67;9.93;;;10.80;99.90;;;;;;4862413;29;21019;-86
2020/12/20 11:47:13;;;;;;;12.20;10.10;;;10.80;99.90;;;;;;4864369;29;20427;-89
2020/12/20 11:49:39;;;;;;;14.90;9.40;;;10.80;99.90;;;;;;4932706;28;20489;-86
2020/12/20 11:52:05;;;;;;;12.73;8.97;;;10.80;99.90;;;;;;4922234;28;20773;-90
2020/12/20 11:54:31;;;;;;;12.97;10.40;;;10.80;99.90;;;;;;4928030;28;20205;-86
2020/12/20 11:56:57;;;;;;;10.90;9.47;;;10.90;99.90;;;;;;4923575;28;20183;-86
2020/12/20 11:59:30;;;;;;;13.53;10.60;;;10.90;99.90;;;;;;4954645;28;20470;-87
2020/12/20 12:02:00;;;;;;;12.13;9.80;;;11.00;99.90;;;;;;4953371;28;20182;-86
2020/12/20 12:04:28;;;;;;;15.23;10.80;;;11.00;99.90;;;;;;4957304;28;20487;-86
2020/12/20 12:06:54;;;;;;;13.37;9.80;;;11.00;99.90;;;;;;4952408;28;20541;-86
2020/12/20 12:09:22;;;;;;;17.57;10.50;;;11.10;99.90;;;;;;4952123;28;20490;-85
2020/12/20 12:11:52;;;;;;;12.10;10.27;;;11.00;99.90;;;;;;4957935;28;20218;-86
2020/12/20 12:14:20;;;;;;;13.87;10.53;;;11.10;99.90;;;;;;4938040;28;20517;-87
2020/12/20 12:16:45;;;;;;;13.07;9.30;;;11.00;99.90;;;;;;4955663;28;20471;-88
2020/12/20 12:19:16;;;;;;;14.33;9.20;;;11.10;99.90;;;;;;4951592;28;20545;-86
2020/12/20 12:21:47;;;;;;;15.70;10.30;;;11.00;99.90;;;;;;4930434;28;20210;-86
2020/12/20 12:24:13;;;;;;;17.90;10.03;;;11.00;99.90;;;;;;4933587;28;20962;-87
2020/12/20 12:26:38;;;;;;;12.80;10.20;;;11.00;99.90;;;;;;4946832;28;20433;-88
2020/12/20 12:29:04;;;;;;;10.60;9.43;;;11.10;99.90;;;;;;4933741;28;20206;-86
2020/12/20 12:31:30;;;;;;;12.93;10.40;;;11.20;99.90;;;;;;4938631;28;21033;-88
2020/12/20 12:33:55;;;;;;;12.93;9.57;;;11.20;99.90;;;;;;4933366;28;20772;-86
2020/12/20 12:36:30;;;;;;;11.30;10.13;;;11.10;99.90;;;;;;4920034;28;20306;-88
2020/12/20 12:38:59;;;;;;;14.03;10.40;;;10.90;99.90;;;;;;4951829;28;20275;-87
2020/12/20 12:41:31;;;;;;;11.60;9.13;;;10.80;99.90;;;;;;4948486;28;20789;-87
2020/12/20 12:43:57;;;;;;;16.40;11.10;;;10.60;99.90;;;;;;4949288;28;20435;-86
2020/12/20 12:46:26;;;;;;;15.00;11.00;;;10.50;99.90;;;;;;4936402;28;20458;-88
2020/12/20 12:48:52;;;;;;;11.97;9.37;;;10.30;99.90;;;;;;4949505;28;20451;-87
2020/12/20 12:51:27;;;;;;;13.93;10.70;;;10.30;99.90;;;;;;4916395;28;20451;-85
2020/12/20 12:54:11;;;;;;;14.77;11.33;;;10.30;99.90;;;;;;4948300;28;20647;-86
2020/12/20 12:56:40;;;;;;;15.90;11.70;;;10.10;99.90;;;;;;4957145;28;20491;-89
2020/12/20 12:59:06;;;;;;;16.10;10.87;;;10.00;99.90;;;;;;4921547;28;20478;-86
2020/12/20 13:01:43;;;;;;;16.83;10.60;;;10.00;99.90;;;;;;4938451;28;20454;-82
2020/12/20 13:04:12;;;;;;;13.77;11.60;;;9.80;99.90;;;;;;4928141;28;20251;-85
2020/12/20 13:06:42;;;;;;;18.07;11.60;;;9.90;99.90;;;;;;4930862;28;20434;-87
2020/12/20 13:09:36;;;;;;;15.70;11.17;;;9.80;99.90;;;;;;4934462;28;20468;-83
2020/12/20 13:12:15;;;;;;;16.57;11.10;;;9.90;99.90;;;;;;4933272;28;20838;-85
2020/12/20 13:15:33;;;;;;;17.77;13.90;;;9.90;99.90;;;;;;4950735;28;20517;-86
2020/12/20 13:18:13;;;;;;;17.23;12.30;;;9.90;99.90;;;;;;4918811;28;20467;-86
2020/12/20 13:20:42;;;;;;;14.83;11.17;;;10.00;99.90;;;;;;4950581;28;20510;-88
2020/12/20 13:23:35;;;;;;;23.30;12.83;;;10.00;99.90;;;;;;4920796;28;20434;-87
2020/12/20 13:26:05;;;;;;;17.70;13.10;;;10.10;99.90;;;;;;4933209;28;20470;-90
2020/12/20 13:28:34;;;;;;;17.00;10.77;;;10.00;99.90;;;;;;4940819;28;20455;-86
2020/12/20 13:31:03;;;;;;;17.83;13.43;;;10.00;99.90;;;;;;4936104;28;20446;-85
2020/12/20 13:33:40;;;;;;;18.57;13.37;;;10.00;99.90;;;;;;4935777;28;20485;-84
2020/12/20 13:36:06;;;;;;;16.10;12.27;;;10.00;99.90;;;;;;4930734;28;20463;-84
2020/12/20 13:38:38;;;;;;;16.67;12.90;;;10.00;99.90;;;;;;4944418;28;20462;-85
2020/12/20 13:41:04;;;;;;;16.40;12.50;;;10.00;99.90;;;;;;4934435;28;20443;-85
2020/12/20 13:43:32;;;;;;;19.00;14.20;;;10.00;99.90;;;;;;4942308;28;20503;-85
2020/12/20 13:45:58;;;;;;;19.00;13.60;;;10.00;99.90;;;;;;4930160;28;20498;-87
2020/12/20 13:48:26;;;;;;;21.33;13.70;;;10.00;99.90;;;;;;4934667;28;20457;-85
2020/12/20 13:50:53;;;;;;;20.43;12.40;;;10.00;99.90;;;;;;4951358;28;20451;-87
2020/12/20 13:53:29;;;;;;;19.90;13.43;;;10.00;99.90;;;;;;4943490;28;20441;-88
2020/12/20 13:55:55;;;;;;;22.50;14.03;;;10.00;99.90;;;;;;4949058;28;20482;-87
2020/12/20 13:58:21;;;;;;;16.47;13.30;;;9.90;99.90;;;;;;4949038;28;20502;-88
2020/12/20 14:00:47;;;;;;;20.80;13.57;;;9.80;99.90;;;;;;4916245;28;21176;-88
2020/12/20 14:03:15;;;;;;;16.90;12.00;;;9.80;99.90;;;;;;4924973;28;20593;-88
2020/12/20 14:05:41;;;;;;;20.63;12.30;;;9.70;99.90;;;;;;4946911;28;20194;-87
2020/12/20 14:08:08;;;;;;;15.23;12.30;;;9.70;99.90;;;;;;4932027;28;20463;-89
2020/12/20 14:10:35;;;;;;;16.67;11.80;;;9.60;99.90;;;;;;4932574;28;20503;-87
2020/12/20 14:13:08;;;;;;;17.73;12.03;;;9.60;99.90;;;;;;4918736;28;20684;-87
2020/12/20 14:15:36;;;;;;;17.00;12.37;;;9.70;99.90;;;;;;4952438;28;20482;-87
2020/12/20 14:18:08;;;;;;;16.33;11.63;;;9.60;99.90;;;;;;4919963;28;20873;-86
2020/12/20 14:20:38;;;;;;;18.10;12.70;;;9.60;99.90;;;;;;4954525;28;20446;-87
2020/12/20 14:23:06;;;;;;;19.17;11.47;;;9.60;99.90;;;;;;4933889;28;20591;-86
2020/12/20 14:25:33;;;;;;;16.30;12.20;;;9.60;99.90;;;;;;4937299;28;21024;-87
2020/12/20 14:28:02;;;;;;;13.80;11.50;;;9.60;99.90;;;;;;4937145;28;20465;-88
2020/12/20 14:30:27;;;;;;;22.63;11.77;;;9.70;99.90;;;;;;4916609;28;20478;-88
2020/12/20 14:32:54;;;;;;;18.80;12.10;;;9.70;99.90;;;;;;4934450;28;20443;-87
2020/12/20 14:35:19;;;;;;;14.03;11.20;;;9.70;99.90;;;;;;4934748;28;20205;-87
2020/12/20 14:37:45;;;;;;;14.37;11.33;;;9.80;99.90;;;;;;4925007;28;21043;-86
2020/12/20 14:40:11;;;;;;;16.93;12.23;;;9.80;99.90;;;;;;4920026;28;20212;-88
2020/12/20 14:42:36;;;;;;;16.27;11.87;;;9.80;99.90;;;;;;4935341;28;20187;-85
2020/12/20 14:45:02;;;;;;;18.60;12.60;;;9.70;99.90;;;;;;4936698;28;20339;-87
2020/12/20 14:47:28;;;;;;;18.27;11.83;;;9.80;99.90;;;;;;4934083;28;20204;-87
2020/12/20 14:49:54;;;;;;;16.47;10.57;;;9.70;99.90;;;;;;4932997;28;20483;-86
2020/12/20 14:52:20;;;;;;;16.07;11.63;;;9.70;99.90;;;;;;4947131;28;20184;-82
2020/12/20 14:54:46;;;;;;;20.33;11.63;;;9.70;99.90;;;;;;4947517;28;20179;-86
2020/12/20 14:57:11;;;;;;;16.97;11.33;;;9.60;99.90;;;;;;4920028;28;20192;-84
2020/12/20 14:59:37;;;;;;;18.10;12.07;;;9.60;99.90;;;;;;4951241;28;20847;-90
2020/12/20 15:02:03;;;;;;;14.50;11.13;;;9.60;99.90;;;;;;4935223;28;20192;-86
2020/12/20 15:04:29;;;;;;;14.83;11.40;;;9.50;99.90;;;;;;4935879;28;20188;-86
2020/12/20 15:06:56;;;;;;;15.30;12.20;;;9.50;99.90;;;;;;4953000;28;20176;-85
2020/12/20 15:09:23;;;;;;;17.90;11.90;;;9.50;99.90;;;;;;4951064;28;20548;-87
2020/12/20 15:11:50;;;;;;;14.27;11.93;;;9.50;99.90;;;;;;4945353;28;20542;-83
2020/12/20 15:14:16;;;;;;;16.67;11.37;;;9.40;99.90;;;;;;4948156;28;20725;-85
2020/12/20 15:16:42;;;;;;;15.67;10.93;;;9.40;99.90;;;;;;4943691;28;20427;-86
2020/12/20 15:19:08;;;;;;;18.30;11.97;;;9.40;99.90;;;;;;4946743;28;20872;-89
2020/12/20 15:21:38;;;;;;;19.27;12.50;;;9.30;99.90;;;;;;4918442;28;20443;-84
2020/12/20 15:24:04;;;;;;;16.50;11.83;;;9.30;99.90;;;;;;4945565;28;20187;-86
2020/12/20 15:26:29;;;;;;;16.47;10.97;;;9.30;99.90;;;;;;4933892;28;20431;-85
2020/12/20 15:29:01;;;;;;;14.50;10.97;;;9.40;99.90;;;;;;4913998;28;20467;-87
2020/12/20 15:31:27;;;;;;;16.50;12.10;;;9.30;99.90;;;;;;4950827;28;20836;-87
2020/12/20 15:33:53;;;;;;;20.53;12.40;;;9.40;99.90;;;;;;4934677;28;20510;-83
2020/12/20 15:36:19;;;;;;;15.60;11.90;;;9.40;99.90;;;;;;4932796;28;20443;-86
2020/12/20 15:38:48;;;;;;;17.17;13.00;;;9.30;99.90;;;;;;4950237;28;20215;-83
2020/12/20 15:41:17;;;;;;;18.30;12.10;;;9.40;99.90;;;;;;4933186;28;20431;-86
2020/12/20 15:43:49;;;;;;;20.67;13.53;;;9.30;99.90;;;;;;4921784;28;21038;-86
2020/12/20 15:46:16;;;;;;;19.90;10.87;;;9.40;99.90;;;;;;4920306;28;20541;-87
2020/12/20 15:48:52;;;;;;;18.50;11.70;;;9.40;99.90;;;;;;4915812;28;20466;-88
2020/12/20 15:51:21;;;;;;;16.57;11.50;;;9.40;99.90;;;;;;4934209;28;20424;-88
2020/12/20 15:53:48;;;;;;;20.60;12.37;;;9.40;99.90;;;;;;4931725;28;20950;-85
2020/12/20 15:56:31;;;;;;;14.70;10.90;;;9.50;99.90;;;;;;4934805;28;20458;-89
2020/12/20 15:59:11;;;;;;;15.73;11.03;;;9.40;99.90;;;;;;4936095;28;20847;-86
2020/12/20 16:01:40;;;;;;;17.70;11.23;;;9.40;99.90;;;;;;4945107;28;20435;-84
2020/12/20 16:04:38;;;;;;;17.90;10.70;;;9.40;99.90;;;;;;4933179;28;20825;-86
2020/12/20 16:07:07;;;;;;;15.83;11.07;;;9.40;99.90;;;;;;4947258;28;20459;-83
2020/12/20 16:09:34;;;;;;;15.70;11.60;;;9.30;99.90;;;;;;4931806;28;20450;-84
2020/12/20 16:12:00;;;;;;;19.40;10.93;;;9.40;99.90;;;;;;4946753;28;20682;-83
2020/12/20 16:14:26;;;;;;;14.27;11.03;;;9.40;99.90;;;;;;4931815;28;20643;-87
2020/12/20 16:17:04;;;;;;;16.90;11.00;;;9.40;99.90;;;;;;4935711;28;20201;-85
2020/12/20 16:19:30;;;;;;;26.57;11.60;;;9.40;99.90;;;;;;4935473;28;20481;-85
2020/12/20 16:22:00;;;;;;;17.43;11.17;;;9.40;99.90;;;;;;4918191;28;20441;-82
2020/12/20 16:24:55;;;;;;;15.93;11.30;;;9.40;99.90;;;;;;4931680;28;20942;-89
2020/12/20 16:27:21;;;;;;;19.13;11.77;;;9.30;99.90;;;;;;4941972;28;20502;-88
2020/12/20 16:29:47;;;;;;;15.47;11.20;;;9.40;99.90;;;;;;4934493;28;20582;-87
2020/12/20 16:32:20;;;;;;;20.33;12.23;;;9.30;99.90;;;;;;4931061;28;20474;-85
2020/12/20 16:34:46;;;;;;;17.23;12.23;;;9.30;99.90;;;;;;4930642;28;20224;-84
2020/12/20 16:37:15;;;;;;;16.33;11.60;;;9.40;99.90;;;;;;4950027;28;20451;-84
2020/12/20 16:39:42;;;;;;;17.10;11.30;;;9.40;99.90;;;;;;4953609;28;20446;-87
2020/12/20 16:42:08;;;;;;;17.53;12.17;;;9.40;99.90;;;;;;4934362;28;20530;-86
2020/12/20 16:44:37;;;;;;;23.17;12.70;;;9.40;99.90;;;;;;4949292;28;20567;-87
2020/12/20 16:47:09;;;;;;;17.30;13.40;;;9.40;99.90;;;;;;4932762;28;20433;-84
2020/12/20 16:49:50;;;;;;;18.00;12.93;;;9.50;99.90;;;;;;4949187;28;20463;-88
2020/12/20 16:52:19;;;;;;;20.63;11.90;;;9.40;99.90;;;;;;4946693;28;20419;-89
2020/12/20 16:55:04;;;;;;;21.70;13.63;;;9.40;99.90;;;;;;4949349;28;20424;-89
2020/12/20 16:57:30;;;;;;;16.83;12.43;;;9.50;99.90;;;;;;4940068;28;20430;-87
2020/12/20 16:59:59;;;;;;;21.93;13.57;;;9.50;99.90;;;;;;4949196;28;20474;-86
2020/12/20 17:02:37;;;;;;;22.47;13.50;;;9.50;99.90;;;;;;4938859;28;20427;-87
2020/12/20 17:05:06;;;;;;;19.70;14.40;;;9.50;99.90;;;;;;4919468;29;20438;-84
2020/12/20 17:07:40;;;;;;;20.67;13.20;;;9.50;99.90;;;;;;4951834;28;20498;-89
2020/12/20 17:10:15;;;;;;;21.30;13.43;;;9.50;99.90;;;;;;4935097;28;20536;-87
2020/12/20 17:12:56;;;;;;;;;;;;;;;;;;;;;
2020/12/20 17:25:21;;;;;;;26.43;14.77;;;9.40;99.90;;;;;;4968063;28;20437;-87
2020/12/20 17:28:06;;;;;;;;;;;;;;;;;;;;;
2020/12/20 17:30:54;;;;;;;21.83;15.40;;;9.40;99.90;;;;;;4971483;28;20493;-86
2020/12/20 17:33:20;;;;;;;24.33;16.53;;;9.40;99.90;;;;;;4921506;28;20487;-87
2020/12/20 17:35:45;;;;;;;22.70;15.57;;;9.40;99.90;;;;;;4923798;28;20470;-87
2020/12/20 17:38:11;;;;;;;28.90;14.67;;;9.40;99.90;;;;;;4923021;28;20207;-85
2020/12/20 17:40:39;;;;;;;30.57;17.20;;;9.40;99.90;;;;;;4931241;28;20219;-87
2020/12/20 17:43:16;;;;;;;23.57;15.80;;;9.40;99.90;;;;;;4949159;28;20186;-85
2020/12/20 17:45:42;;;;;;;24.97;15.70;;;9.40;99.90;;;;;;4920719;28;20437;-84
2020/12/20 17:48:15;;;;;;;24.33;15.27;;;9.50;99.90;;;;;;4952451;28;21016;-84
2020/12/20 17:50:41;;;;;;;24.40;15.23;;;9.40;99.90;;;;;;4922276;28;20861;-85
2020/12/20 17:53:23;;;;;;;30.70;16.83;;;9.50;99.90;;;;;;4953777;28;20521;-85
2020/12/20 17:55:51;;;;;;;24.77;15.97;;;9.50;99.90;;;;;;4953869;28;20191;-87
2020/12/20 17:58:19;;;;;;;22.13;15.90;;;9.40;99.90;;;;;;4951122;28;20465;-84
2020/12/20 18:01:03;;;;;;;23.20;16.50;;;9.40;99.90;;;;;;4951655;28;20443;-83
2020/12/20 18:03:34;;;;;;;25.47;15.87;;;9.40;99.90;;;;;;4934834;29;20438;-85
2020/12/20 18:06:26;;;;;;;23.83;16.60;;;9.40;99.90;;;;;;4933830;28;20469;-86
2020/12/20 18:08:52;;;;;;;23.70;15.40;;;9.30;99.90;;;;;;4914101;28;20466;-78
2020/12/20 18:11:18;;;;;;;22.63;16.23;;;9.30;99.90;;;;;;4941839;28;20572;-77
2020/12/20 18:13:45;;;;;;;26.00;17.13;;;9.20;99.90;;;;;;4892803;28;20624;-76
2020/12/20 18:16:14;;;;;;;23.57;17.00;;;9.20;99.90;;;;;;4914810;28;20206;-80
2020/12/20 18:18:45;;;;;;;25.60;17.40;;;9.30;99.90;;;;;;4932650;28;21075;-77
2020/12/20 18:21:11;;;;;;;24.93;16.00;;;9.20;99.90;;;;;;4906928;28;20962;-79
2020/12/20 18:23:37;;;;;;;25.10;17.13;;;9.20;99.90;;;;;;4948459;28;20455;-79
2020/12/20 18:26:04;;;;;;;27.50;17.47;;;9.10;99.90;;;;;;4917153;28;20187;-77
2020/12/20 18:28:31;;;;;;;30.77;17.83;;;9.10;99.90;;;;;;4950789;28;20503;-79
2020/12/20 18:30:56;;;;;;;31.00;18.30;;;9.10;99.90;;;;;;4932484;28;20438;-78
2020/12/20 18:33:22;;;;;;;27.97;18.70;;;9.10;99.90;;;;;;4921160;28;20489;-79
2020/12/20 18:35:48;;;;;;;25.80;18.53;;;9.00;99.90;;;;;;4928215;28;20567;-77
2020/12/20 18:38:14;;;;;;;28.67;17.50;;;9.00;99.90;;;;;;4930048;28;20207;-78
2020/12/20 18:40:40;;;;;;;31.00;18.63;;;9.00;99.90;;;;;;4901606;28;20457;-77
2020/12/20 18:43:06;;;;;;;29.83;19.00;;;8.90;99.90;;;;;;4926917;28;20199;-79
2020/12/20 18:45:35;;;;;;;35.53;19.30;;;8.90;99.90;;;;;;4905635;28;20218;-77
2020/12/20 18:48:00;;;;;;;25.93;17.43;;;8.80;99.90;;;;;;4941756;28;20489;-79
2020/12/20 18:50:26;;;;;;;31.30;18.37;;;8.80;99.90;;;;;;4913545;28;20834;-82
2020/12/20 18:52:52;;;;;;;30.37;19.00;;;8.80;99.90;;;;;;4929350;28;20203;-79
2020/12/20 18:55:18;;;;;;;27.23;18.33;;;8.80;99.90;;;;;;4932079;28;20719;-82
2020/12/20 18:57:45;;;;;;;28.20;19.87;;;8.80;99.90;;;;;;4929678;28;20470;-80
2020/12/20 19:00:11;;;;;;;30.00;21.30;;;8.80;99.90;;;;;;4925942;28;20764;-78
2020/12/20 19:02:37;;;;;;;32.70;21.10;;;8.80;99.90;;;;;;4913303;28;20428;-78
2020/12/20 19:05:04;;;;;;;35.97;20.57;;;8.70;99.90;;;;;;4915889;28;20438;-78
2020/12/20 19:07:30;;;;;;;29.20;18.67;;;8.70;99.90;;;;;;4912559;28;20274;-82
2020/12/20 19:09:56;;;;;;;36.23;21.53;;;8.60;99.90;;;;;;4930016;28;20620;-80
2020/12/20 19:12:21;;;;;;;33.40;21.00;;;8.50;99.90;;;;;;4931128;28;20190;-76
2020/12/20 19:14:49;;;;;;;39.87;21.33;;;8.50;99.90;;;;;;4928814;28;20187;-78
2020/12/20 19:17:14;;;;;;;36.90;22.00;;;8.50;99.90;;;;;;4929113;28;20789;-78
2020/12/20 19:19:40;;;;;;;39.20;24.33;;;8.40;99.90;;;;;;4916616;28;20530;-80
2020/12/20 19:22:06;;;;;;;40.97;24.00;;;8.40;99.90;;;;;;4915332;28;20208;-80
2020/12/20 19:24:32;;;;;;;36.50;21.77;;;8.40;99.90;;;;;;4902553;28;20209;-82
2020/12/20 19:26:58;;;;;;;31.73;20.27;;;8.40;99.90;;;;;;4912082;28;20253;-77
2020/12/20 19:29:26;;;;;;;31.57;21.53;;;8.30;99.90;;;;;;4915802;28;20282;-77
2020/12/20 19:31:51;;;;;;;38.83;21.43;;;8.30;99.90;;;;;;4927188;28;20450;-80
2020/12/20 19:34:18;;;;;;;35.87;21.27;;;8.30;99.90;;;;;;4926202;28;20456;-79
2020/12/20 19:36:46;;;;;;;33.37;20.97;;;8.20;99.90;;;;;;4914604;28;20199;-78
2020/12/20 19:39:13;;;;;;;36.80;21.83;;;8.20;99.90;;;;;;4911778;28;20483;-76
2020/12/20 19:41:39;;;;;;;38.43;22.67;;;8.20;99.90;;;;;;4929197;28;20501;-77
2020/12/20 19:44:09;;;;;;;37.60;23.20;;;8.10;99.90;;;;;;4913991;28;20438;-74
2020/12/20 19:46:36;;;;;;;37.70;20.53;;;8.10;99.90;;;;;;4926939;28;20412;-76
2020/12/20 19:49:03;;;;;;;35.67;22.03;;;8.10;99.90;;;;;;4914229;28;20564;-78
2020/12/20 19:51:29;;;;;;;43.27;23.37;;;8.10;99.90;;;;;;4914823;28;20994;-80
2020/12/20 19:53:59;;;;;;;41.70;25.20;;;8.10;99.90;;;;;;4927597;28;20419;-77
2020/12/20 19:56:26;;;;;;;36.77;22.20;;;8.10;99.90;;;;;;4906306;28;20446;-78
2020/12/20 19:58:52;;;;;;;35.83;21.67;;;8.00;99.90;;;;;;4910526;28;21003;-80
2020/12/20 20:01:19;;;;;;;41.57;24.07;;;8.00;99.90;;;;;;4909807;28;20531;-78
2020/12/20 20:03:46;;;;;;;40.57;22.00;;;8.00;99.90;;;;;;4912959;28;20443;-76
2020/12/20 20:06:11;;;;;;;37.77;21.70;;;8.00;99.90;;;;;;4944474;28;20435;-78
2020/12/20 20:08:37;;;;;;;41.60;23.50;;;8.00;99.90;;;;;;4927875;28;20446;-77
2020/12/20 20:11:04;;;;;;;47.23;24.80;;;8.00;99.90;;;;;;4914225;28;20246;-80
2020/12/20 20:13:30;;;;;;;48.17;23.57;;;8.00;99.90;;;;;;4924620;28;20437;-78
2020/12/20 20:15:56;;;;;;;45.37;24.10;;;7.90;99.90;;;;;;4895138;28;20431;-79
2020/12/20 20:18:22;;;;;;;43.07;23.70;;;7.90;99.90;;;;;;4910042;28;20583;-78
2020/12/20 20:20:48;;;;;;;46.80;25.23;;;7.80;99.90;;;;;;4895756;28;20478;-80
2020/12/20 20:23:13;;;;;;;46.90;24.97;;;7.80;99.90;;;;;;4895402;28;20807;-80
2020/12/20 20:25:47;;;;;;;43.00;23.40;;;7.90;99.90;;;;;;4942603;28;20562;-80
2020/12/20 20:28:13;;;;;;;35.50;21.70;;;7.90;99.90;;;;;;4933125;28;20213;-83
2020/12/20 20:30:39;;;;;;;42.83;25.30;;;7.90;99.90;;;;;;4913107;28;21322;-75
2020/12/20 20:33:05;;;;;;;45.77;23.80;;;8.00;99.90;;;;;;4915810;28;20183;-80
2020/12/20 20:35:31;;;;;;;53.47;27.20;;;8.10;99.90;;;;;;4938606;28;20199;-79
2020/12/20 20:37:57;;;;;;;47.00;24.00;;;8.20;99.90;;;;;;4923218;28;20908;-79
2020/12/20 20:40:22;;;;;;;54.57;28.10;;;8.20;99.90;;;;;;4924967;28;20481;-80
2020/12/20 20:42:48;;;;;;;44.40;23.60;;;8.30;99.90;;;;;;4913557;28;20698;-78
2020/12/20 20:45:15;;;;;;;61.10;27.70;;;8.50;99.90;;;;;;4927029;28;20274;-81
2020/12/20 20:47:45;;;;;;;58.17;24.53;;;8.60;99.90;;;;;;4927791;28;20578;-78
2020/12/20 21:22:29;;;;;;;50.43;24.07;;;8.60;99.90;;;;;;4952258;28;20557;-85
2020/12/20 21:25:21;;;;;;;45.67;21.20;;;8.60;99.90;;;;;;4938076;28;20515;-86
2020/12/20 21:28:13;;;;;;;;;;;;;;;;;;;;;
2020/12/20 21:30:43;;;;;;;57.07;20.70;;;8.50;99.90;;;;;;4953939;28;20543;-86
2020/12/20 21:33:18;;;;;;;58.63;21.03;;;8.50;99.90;;;;;;4919176;28;20953;-86
2020/12/20 21:35:56;;;;;;;53.53;18.67;;;8.50;99.90;;;;;;4962627;28;20514;-86
2020/12/20 21:38:30;;;;;;;88.37;19.63;;;8.50;99.90;;;;;;4933969;28;20505;-88
2020/12/20 21:41:06;;;;;;;48.87;19.63;;;8.40;99.90;;;;;;4934466;28;20465;-85
2020/12/20 21:43:44;;;;;;;69.13;19.60;;;8.50;99.90;;;;;;4953610;28;20802;-87
2020/12/20 21:46:27;;;;;;;60.73;18.50;;;8.40;99.90;;;;;;4960526;28;20462;-86
2020/12/20 21:48:57;;;;;;;88.23;20.00;;;8.40;99.90;;;;;;4921503;28;20455;-86
2020/12/20 21:51:54;;;;;;;50.77;17.30;;;8.40;99.90;;;;;;4934868;28;20430;-86
2020/12/20 21:54:34;;;;;;;73.57;18.40;;;8.30;99.90;;;;;;4935563;28;20438;-86
2020/12/20 21:57:07;;;;;;;67.90;18.73;;;8.40;99.90;;;;;;4950144;28;20583;-87
2020/12/20 21:59:53;;;;;;;88.20;19.50;;;8.30;99.90;;;;;;4935834;28;20470;-86
2020/12/20 22:02:58;;;;;;;61.33;17.80;;;8.30;99.90;;;;;;4933963;29;20453;-86